Time;durP1;ratioP1;P1;durP2;ratioP2;P2;SDS_P1;SDS_P2;PMS_P1;PMS_P2;Temp;Humidity;BMP_temperature;BMP_pressure;BME280_temperature;BME280_humidity;BME280_pressure;Samples;Min_cycle;Max_cycle;Signal;HPM_P1;HPM_P2
2023/07/06 03:00:49;;;;;;;2.85;1.90;;;25.10;36.00;;;;;;6068551;23;45089;-62
2023/07/06 03:03:15;;;;;;;2.88;1.98;;;25.10;36.00;;;;;;4919132;28;45546;-55
2023/07/06 03:05:44;;;;;;;3.17;2.00;;;25.10;36.20;;;;;;4918421;28;45625;-62
2023/07/06 03:08:10;;;;;;;2.15;1.77;;;25.10;36.20;;;;;;4958778;28;46622;-61
2023/07/06 03:10:35;;;;;;;2.47;1.80;;;25.10;36.20;;;;;;4954299;28;45250;-57
2023/07/06 03:13:01;;;;;;;4.13;1.80;;;25.10;36.30;;;;;;4935515;28;45836;-58
2023/07/06 03:15:28;;;;;;;3.90;2.08;;;25.00;36.30;;;;;;4956515;28;45747;-65
2023/07/06 03:17:54;;;;;;;3.10;2.10;;;25.10;36.40;;;;;;4963190;28;46976;-57
2023/07/06 03:20:19;;;;;;;3.03;1.83;;;25.00;36.40;;;;;;4960253;28;44816;-55
2023/07/06 03:22:48;;;;;;;2.47;1.90;;;25.00;36.40;;;;;;4964737;28;45801;-57
2023/07/06 03:25:21;;;;;;;2.67;1.85;;;25.00;36.50;;;;;;4962928;28;45875;-58
2023/07/06 03:27:46;;;;;;;5.07;2.70;;;25.00;36.60;;;;;;4965189;28;46228;-57
2023/07/06 03:30:13;;;;;;;4.33;2.83;;;25.00;36.60;;;;;;4961916;28;45326;-55
2023/07/06 03:32:38;;;;;;;4.07;2.80;;;25.00;36.70;;;;;;4964241;28;45413;-56
2023/07/06 03:35:05;;;;;;;3.70;2.50;;;24.60;37.30;;;;;;4966270;28;44744;-60
2023/07/06 03:37:30;;;;;;;4.88;2.28;;;24.30;37.80;;;;;;4946474;28;45505;-60
2023/07/06 03:39:56;;;;;;;3.72;2.20;;;24.20;38.00;;;;;;4969074;28;45081;-58
2023/07/06 03:42:21;;;;;;;2.25;1.88;;;24.10;38.10;;;;;;4960964;28;46370;-59
2023/07/06 03:44:47;;;;;;;3.25;1.73;;;24.10;38.20;;;;;;4951236;28;45792;-58
2023/07/06 03:47:14;;;;;;;2.22;1.60;;;24.10;38.20;;;;;;4956034;28;45856;-59
2023/07/06 03:49:40;;;;;;;3.03;1.90;;;24.10;38.30;;;;;;4967161;28;45422;-58
2023/07/06 03:52:06;;;;;;;3.40;1.95;;;24.00;38.40;;;;;;4959829;28;45498;-58
2023/07/06 03:54:31;;;;;;;3.63;1.80;;;24.00;38.40;;;;;;4965880;28;45818;-58
2023/07/06 03:56:57;;;;;;;3.30;1.70;;;24.00;38.50;;;;;;4955894;28;46155;-61
2023/07/06 03:59:23;;;;;;;3.53;1.85;;;23.90;38.60;;;;;;4970294;28;45529;-55
2023/07/06 04:01:49;;;;;;;4.23;2.80;;;23.90;38.70;;;;;;4934771;28;45697;-61
2023/07/06 04:04:16;;;;;;;3.90;2.33;;;24.10;38.50;;;;;;4969955;28;45382;-59
2023/07/06 04:06:41;;;;;;;3.95;2.30;;;24.30;38.30;;;;;;4958051;28;47039;-61
2023/07/06 04:09:10;;;;;;;3.65;2.50;;;24.40;38.20;;;;;;4969827;28;45315;-61
2023/07/06 04:11:36;;;;;;;4.10;2.27;;;24.50;38.30;;;;;;4960751;28;44977;-57
2023/07/06 04:14:03;;;;;;;3.23;2.20;;;24.50;38.20;;;;;;4969365;28;45498;-60
2023/07/06 04:16:28;;;;;;;4.95;2.38;;;24.60;38.20;;;;;;4943426;28;45462;-58
2023/07/06 04:18:55;;;;;;;3.33;2.30;;;24.60;38.10;;;;;;4953226;28;45554;-55
2023/07/06 04:21:22;;;;;;;2.95;2.13;;;24.60;38.10;;;;;;4961783;28;45560;-57
2023/07/06 04:23:47;;;;;;;3.63;2.28;;;24.70;38.10;;;;;;4970202;28;45666;-59
2023/07/06 04:26:14;;;;;;;2.83;2.03;;;24.70;38.10;;;;;;4965771;28;46150;-55
2023/07/06 04:28:40;;;;;;;4.13;2.42;;;24.70;38.10;;;;;;4972253;28;45608;-58
2023/07/06 04:31:06;;;;;;;3.55;2.13;;;24.70;38.10;;;;;;4961260;28;45223;-57
2023/07/06 04:33:31;;;;;;;3.72;2.15;;;24.70;38.10;;;;;;4952397;28;45323;-64
2023/07/06 04:35:57;;;;;;;4.00;2.40;;;24.70;38.10;;;;;;4964112;28;46065;-52
2023/07/06 04:38:26;;;;;;;3.70;2.70;;;24.70;38.20;;;;;;4958549;28;45343;-55
2023/07/06 04:40:52;;;;;;;4.68;3.30;;;24.70;38.20;;;;;;4962322;28;45841;-59
2023/07/06 04:43:17;;;;;;;5.32;4.00;;;24.70;38.30;;;;;;4969350;28;45255;-57
2023/07/06 04:45:44;;;;;;;6.60;4.53;;;24.70;38.90;;;;;;4958192;28;45842;-59
2023/07/06 04:48:10;;;;;;;5.53;4.22;;;24.70;38.40;;;;;;4959843;28;45363;-56
2023/07/06 04:50:37;;;;;;;5.30;4.38;;;24.70;38.40;;;;;;4959317;28;45518;-58
2023/07/06 04:53:03;;;;;;;8.02;4.75;;;24.70;38.40;;;;;;4969946;28;45087;-54
2023/07/06 04:55:29;;;;;;;7.77;4.07;;;24.70;38.50;;;;;;4965353;28;45854;-60
2023/07/06 04:57:56;;;;;;;6.55;3.85;;;24.70;38.60;;;;;;4968019;28;45449;-56
2023/07/06 05:00:29;;;;;;;5.35;3.63;;;24.70;38.80;;;;;;4961415;28;45450;-58
2023/07/06 05:03:00;;;;;;;4.82;3.70;;;24.60;38.80;;;;;;4967061;28;46630;-54
2023/07/06 05:05:27;;;;;;;4.38;3.35;;;24.60;38.90;;;;;;4940386;28;45973;-54
2023/07/06 05:07:53;;;;;;;5.50;3.38;;;24.60;39.10;;;;;;4966765;28;46756;-57
2023/07/06 05:10:20;;;;;;;4.50;3.40;;;24.50;39.10;;;;;;4945538;28;45390;-58
2023/07/06 05:12:46;;;;;;;5.63;3.60;;;24.50;39.30;;;;;;4966918;28;45330;-60
2023/07/06 05:15:12;;;;;;;5.00;3.50;;;24.50;39.30;;;;;;4966884;28;45843;-59
2023/07/06 05:17:39;;;;;;;5.22;3.35;;;24.40;39.40;;;;;;4965483;28;45319;-58
2023/07/06 05:20:08;;;;;;;5.90;3.40;;;24.40;39.50;;;;;;4964522;28;45022;-58
2023/07/06 05:22:39;;;;;;;6.65;3.20;;;24.40;39.50;;;;;;4948229;28;45793;-55
2023/07/06 05:25:06;;;;;;;7.13;3.42;;;24.40;39.50;;;;;;4966124;28;46298;-62
2023/07/06 05:27:31;;;;;;;6.15;3.42;;;24.40;39.60;;;;;;4965201;28;45267;-57
2023/07/06 05:29:57;;;;;;;6.60;3.50;;;24.40;39.60;;;;;;4965191;28;45725;-60
2023/07/06 05:32:22;;;;;;;5.10;3.22;;;24.40;39.60;;;;;;4956624;28;45309;-57
2023/07/06 05:34:48;;;;;;;4.32;3.10;;;24.40;39.70;;;;;;4968161;28;45906;-56
2023/07/06 05:37:13;;;;;;;4.70;3.00;;;24.50;39.80;;;;;;4961987;28;45698;-54
2023/07/06 05:39:39;;;;;;;5.53;3.00;;;24.50;39.80;;;;;;4966893;28;46090;-56
2023/07/06 05:42:05;;;;;;;6.80;3.20;;;24.50;39.90;;;;;;4957846;28;45299;-58
2023/07/06 05:44:30;;;;;;;5.43;3.13;;;24.50;39.70;;;;;;4969477;28;46058;-59
2023/07/06 05:46:56;;;;;;;7.37;3.00;;;24.60;39.70;;;;;;4924122;28;45486;-62
2023/07/06 05:49:21;;;;;;;6.17;3.43;;;24.60;39.70;;;;;;4970102;28;45866;-55
2023/07/06 05:51:47;;;;;;;8.83;3.40;;;24.70;39.70;;;;;;4963383;28;45637;-56
2023/07/06 05:54:12;;;;;;;9.57;3.17;;;24.70;39.60;;;;;;4971057;28;45271;-53
2023/07/06 05:56:38;;;;;;;8.03;3.03;;;24.80;39.70;;;;;;4961460;28;45839;-60
2023/07/06 05:59:04;;;;;;;6.90;3.20;;;24.80;39.60;;;;;;4968861;28;45537;-62
2023/07/06 06:01:30;;;;;;;7.65;3.30;;;24.80;39.60;;;;;;4959479;28;45239;-56
2023/07/06 06:03:56;;;;;;;3.97;3.05;;;24.80;39.60;;;;;;4968164;28;46511;-60
2023/07/06 06:06:22;;;;;;;5.03;2.97;;;24.90;39.60;;;;;;4963848;28;45471;-57
2023/07/06 06:08:48;;;;;;;7.07;3.38;;;25.00;39.50;;;;;;4969930;28;45642;-57
2023/07/06 06:11:15;;;;;;;8.48;2.75;;;25.00;39.30;;;;;;4960878;28;45339;-58
2023/07/06 06:13:43;;;;;;;9.00;3.17;;;25.10;39.30;;;;;;4949594;28;45551;-57
2023/07/06 06:16:11;;;;;;;10.10;2.90;;;25.10;39.20;;;;;;4959148;28;45295;-59
2023/07/06 06:18:39;;;;;;;4.97;2.72;;;25.20;39.30;;;;;;4967129;28;45429;-56
2023/07/06 06:21:06;;;;;;;6.87;2.97;;;25.30;39.20;;;;;;4957983;28;45372;-59
2023/07/06 06:23:32;;;;;;;7.25;3.13;;;25.30;39.20;;;;;;4970853;28;45703;-61
2023/07/06 06:25:58;;;;;;;7.30;3.30;;;25.40;39.20;;;;;;4962174;28;45525;-54
2023/07/06 06:28:24;;;;;;;7.00;3.00;;;25.40;39.20;;;;;;4969014;28;45600;-58
2023/07/06 06:30:49;;;;;;;5.97;2.53;;;25.40;39.30;;;;;;4959894;28;45249;-57
2023/07/06 06:33:15;;;;;;;8.23;3.20;;;25.50;39.30;;;;;;4968783;28;45801;-58
2023/07/06 06:35:40;;;;;;;10.00;3.33;;;25.50;39.20;;;;;;4937116;28;45109;-60
2023/07/06 06:38:06;;;;;;;4.47;2.85;;;25.60;39.30;;;;;;4969157;28;45068;-57
2023/07/06 06:40:33;;;;;;;6.50;2.80;;;25.60;39.20;;;;;;4964656;28;44824;-59
2023/07/06 06:43:00;;;;;;;6.97;2.92;;;25.70;39.30;;;;;;4968181;28;45965;-58
2023/07/06 06:45:26;;;;;;;4.85;2.83;;;25.70;39.20;;;;;;4960997;28;45133;-57
2023/07/06 06:47:52;;;;;;;7.03;2.92;;;25.70;39.10;;;;;;4948018;28;45364;-58
2023/07/06 06:50:19;;;;;;;7.43;2.58;;;25.80;39.00;;;;;;4962867;28;45212;-57
2023/07/06 06:52:46;;;;;;;7.68;2.63;;;25.80;39.00;;;;;;4948852;28;46426;-58
2023/07/06 06:55:12;;;;;;;8.82;2.88;;;25.90;39.00;;;;;;4951629;28;45619;-57
2023/07/06 06:57:38;;;;;;;4.63;2.90;;;25.90;38.90;;;;;;4952291;28;45621;-59
2023/07/06 07:00:14;;;;;;;3.78;2.70;;;25.90;38.80;;;;;;4966231;28;45545;-61
2023/07/06 07:02:39;;;;;;;4.35;2.70;;;26.00;38.80;;;;;;4954332;28;45552;-60
2023/07/06 07:05:06;;;;;;;4.70;2.70;;;26.00;38.60;;;;;;4964014;28;45118;-67
2023/07/06 07:07:32;;;;;;;5.37;2.93;;;26.10;38.40;;;;;;4956577;28;45136;-57
2023/07/06 07:09:58;;;;;;;5.33;2.60;;;26.10;38.50;;;;;;4958635;28;45382;-60
2023/07/06 07:12:25;;;;;;;4.32;2.60;;;26.20;38.20;;;;;;4961583;28;45455;-57
2023/07/06 07:14:50;;;;;;;5.32;2.70;;;26.20;38.10;;;;;;4959084;28;45453;-63
2023/07/06 07:17:16;;;;;;;5.20;2.70;;;26.20;38.00;;;;;;4959339;28;44990;-59
2023/07/06 07:19:41;;;;;;;5.40;2.70;;;26.30;37.70;;;;;;4955194;28;44726;-62
2023/07/06 07:22:07;;;;;;;3.87;2.43;;;26.30;37.50;;;;;;4965081;28;46449;-59
2023/07/06 07:24:33;;;;;;;4.50;2.63;;;26.30;37.20;;;;;;4971489;28;45319;-60
2023/07/06 07:27:00;;;;;;;4.20;2.10;;;26.30;37.00;;;;;;4945653;28;45476;-60
2023/07/06 07:29:25;;;;;;;4.00;2.40;;;26.40;36.70;;;;;;4950333;28;44912;-58
2023/07/06 07:31:51;;;;;;;2.83;1.98;;;26.40;36.60;;;;;;4959329;28;46132;-60
2023/07/06 07:34:20;;;;;;;4.57;2.20;;;26.50;36.60;;;;;;4971408;28;45251;-63
2023/07/06 07:36:45;;;;;;;4.43;2.13;;;26.60;36.40;;;;;;4962971;28;45516;-60
2023/07/06 07:39:11;;;;;;;3.47;1.95;;;26.60;36.20;;;;;;4940102;28;45198;-60
2023/07/06 07:41:37;;;;;;;3.03;1.95;;;26.70;36.00;;;;;;4953201;28;46034;-62
2023/07/06 07:44:03;;;;;;;4.05;2.20;;;26.80;36.10;;;;;;4969947;28;45394;-60
2023/07/06 07:46:29;;;;;;;4.10;2.20;;;26.80;36.00;;;;;;4932708;28;45038;-61
2023/07/06 07:48:55;;;;;;;3.28;2.13;;;26.90;35.80;;;;;;4965281;28;45755;-56
2023/07/06 07:51:23;;;;;;;5.32;2.30;;;26.90;35.80;;;;;;4948260;28;45991;-59
2023/07/06 07:53:49;;;;;;;4.90;2.15;;;27.00;35.80;;;;;;4969877;28;45819;-61
2023/07/06 07:56:15;;;;;;;4.05;2.30;;;27.00;35.90;;;;;;4952434;28;46382;-56
2023/07/06 07:58:41;;;;;;;5.72;2.13;;;27.10;35.80;;;;;;4956821;28;44873;-59
2023/07/06 08:01:08;;;;;;;3.67;2.08;;;27.10;35.50;;;;;;4940725;28;47446;-64
2023/07/06 08:03:35;;;;;;;3.97;2.15;;;27.20;35.40;;;;;;4951926;28;45946;-58
2023/07/06 08:06:03;;;;;;;3.40;2.00;;;27.20;35.40;;;;;;4960074;28;44973;-58
2023/07/06 08:08:29;;;;;;;4.72;2.45;;;27.20;35.90;;;;;;4970892;28;45102;-56
2023/07/06 08:10:55;;;;;;;3.53;2.05;;;27.30;35.00;;;;;;4968355;28;46073;-59
2023/07/06 08:13:20;;;;;;;3.33;2.13;;;27.30;34.80;;;;;;4965053;28;45009;-58
2023/07/06 08:15:46;;;;;;;4.97;2.10;;;27.30;34.40;;;;;;4949335;28;45899;-59
2023/07/06 08:18:12;;;;;;;3.80;2.00;;;27.40;34.70;;;;;;4955940;28;46010;-63
2023/07/06 08:20:38;;;;;;;3.30;2.20;;;27.40;34.60;;;;;;4957309;28;45218;-58
2023/07/06 08:23:06;;;;;;;3.57;2.10;;;27.40;34.50;;;;;;4973746;28;45220;-57
2023/07/06 08:25:41;;;;;;;3.47;2.07;;;27.40;34.50;;;;;;4962601;28;46240;-61
2023/07/06 08:28:09;;;;;;;3.33;1.90;;;27.50;34.50;;;;;;4957655;28;45339;-63
2023/07/06 08:30:35;;;;;;;4.80;2.22;;;27.50;34.40;;;;;;4965692;28;45800;-60
2023/07/06 08:33:00;;;;;;;3.22;2.08;;;27.60;34.20;;;;;;4952362;28;45696;-64
2023/07/06 08:35:27;;;;;;;4.35;2.53;;;27.50;33.90;;;;;;4959020;28;45588;-61
2023/07/06 08:37:53;;;;;;;4.07;2.23;;;27.60;33.70;;;;;;4958033;28;45471;-58
2023/07/06 08:40:19;;;;;;;2.37;1.80;;;27.60;33.80;;;;;;4952980;28;45942;-61
2023/07/06 08:42:50;;;;;;;3.07;1.80;;;27.60;33.70;;;;;;4943640;28;45165;-60
2023/07/06 08:45:21;;;;;;;3.73;2.30;;;27.70;33.70;;;;;;4944950;28;45608;-57
2023/07/06 08:47:47;;;;;;;4.33;2.00;;;27.70;33.60;;;;;;4941677;28;46091;-64
2023/07/06 08:50:15;;;;;;;3.47;2.10;;;27.70;33.50;;;;;;4947459;28;45978;-66
2023/07/06 08:52:41;;;;;;;3.53;2.13;;;27.70;33.40;;;;;;4959492;28;44991;-57
2023/07/06 08:55:11;;;;;;;4.53;2.10;;;27.80;33.30;;;;;;4970739;28;45345;-63
2023/07/06 08:57:36;;;;;;;3.63;2.17;;;27.80;33.50;;;;;;4928903;28;45818;-60
2023/07/06 09:00:03;;;;;;;3.03;2.00;;;27.70;33.50;;;;;;4958324;28;47965;-63
2023/07/06 09:02:30;;;;;;;3.55;2.22;;;27.70;33.40;;;;;;4946129;28;45132;-59
2023/07/06 09:04:59;;;;;;;3.90;2.03;;;27.70;33.50;;;;;;4951098;28;45244;-59
2023/07/06 09:07:37;;;;;;;5.43;2.00;;;27.70;33.10;;;;;;4965181;28;45196;-60
2023/07/06 09:10:17;;;;;;;2.90;2.00;;;27.70;32.90;;;;;;4931545;28;45084;-65
2023/07/06 09:12:43;;;;;;;3.03;1.73;;;27.80;33.00;;;;;;4954900;28;45500;-60
2023/07/06 09:15:09;;;;;;;4.53;1.80;;;27.80;32.90;;;;;;4953087;28;45359;-63
2023/07/06 09:17:44;;;;;;;4.03;2.30;;;27.70;33.00;;;;;;4953010;28;45104;-60
2023/07/06 09:20:11;;;;;;;5.57;2.13;;;27.70;32.60;;;;;;4952012;28;46049;-56
2023/07/06 09:22:40;;;;;;;2.92;2.00;;;27.80;32.40;;;;;;4954690;28;45320;-59
2023/07/06 09:25:12;;;;;;;3.00;1.83;;;27.70;32.20;;;;;;4968911;28;44681;-60
2023/07/06 09:27:38;;;;;;;3.42;2.10;;;27.70;32.30;;;;;;4936938;28;45314;-61
2023/07/06 09:30:05;;;;;;;3.93;2.03;;;27.70;32.20;;;;;;4952859;28;45232;-64
2023/07/06 09:32:34;;;;;;;4.20;1.77;;;27.80;32.30;;;;;;4913348;28;45533;-61
2023/07/06 09:35:03;;;;;;;3.83;1.97;;;27.70;32.30;;;;;;4954794;28;45699;-61
2023/07/06 09:37:29;;;;;;;4.57;2.10;;;27.70;32.40;;;;;;4952595;28;45751;-62
2023/07/06 09:40:03;;;;;;;2.77;1.80;;;27.80;32.30;;;;;;4972331;28;45553;-61
2023/07/06 09:42:29;;;;;;;3.95;2.00;;;27.80;32.30;;;;;;4958571;28;44659;-61
2023/07/06 09:44:55;;;;;;;3.23;1.73;;;27.80;32.50;;;;;;4957116;28;45531;-63
2023/07/06 09:47:20;;;;;;;3.90;2.50;;;27.80;32.20;;;;;;4950832;28;45596;-57
2023/07/06 09:49:52;;;;;;;3.37;2.10;;;27.90;32.40;;;;;;4942902;28;45352;-56
2023/07/06 09:52:19;;;;;;;3.15;1.50;;;27.90;32.40;;;;;;4953582;28;45346;-62
2023/07/06 09:55:19;;;;;;;3.05;1.80;;;27.90;32.20;;;;;;4960855;28;45443;-58
2023/07/06 09:57:47;;;;;;;3.38;1.88;;;27.90;32.10;;;;;;4934199;28;45526;-60
2023/07/06 10:00:16;;;;;;;4.00;1.85;;;27.90;31.90;;;;;;4963532;28;46300;-64
2023/07/06 10:02:57;;;;;;;3.63;1.90;;;28.00;32.40;;;;;;4958305;28;45519;-62
2023/07/06 10:05:32;;;;;;;3.55;2.00;;;28.10;32.00;;;;;;4954202;28;45450;-59
2023/07/06 10:08:00;;;;;;;4.72;2.00;;;28.10;31.90;;;;;;4969157;28;45844;-61
2023/07/06 10:10:52;;;;;;;3.50;1.83;;;28.10;31.90;;;;;;4965325;28;45262;-58
2023/07/06 10:13:28;;;;;;;4.05;1.98;;;28.10;31.70;;;;;;4976267;28;45347;-60
2023/07/06 10:16:38;;;;;;;3.30;1.80;;;28.10;31.70;;;;;;4965469;28;45271;-63
2023/07/06 10:19:15;;;;;;;2.92;1.70;;;28.10;31.60;;;;;;4943591;28;45575;-62
2023/07/06 10:22:00;;;;;;;2.85;1.90;;;28.10;31.60;;;;;;4967495;28;46200;-59
2023/07/06 10:24:32;;;;;;;3.15;1.70;;;28.10;31.40;;;;;;4972159;28;45791;-59
2023/07/06 10:26:59;;;;;;;2.67;1.60;;;28.10;31.50;;;;;;4963280;28;45692;-59
2023/07/06 10:29:37;;;;;;;3.20;1.85;;;28.10;31.20;;;;;;4935145;28;45918;-60
2023/07/06 10:32:11;;;;;;;2.97;1.87;;;28.10;31.30;;;;;;4948384;28;46001;-59
2023/07/06 10:34:43;;;;;;;1.90;1.70;;;28.20;31.30;;;;;;4938743;28;45635;-58
2023/07/06 10:37:11;;;;;;;2.30;1.60;;;28.10;31.30;;;;;;4970284;28;45712;-59
2023/07/06 10:39:45;;;;;;;4.18;1.75;;;28.10;31.40;;;;;;4937999;28;45019;-60
2023/07/06 10:42:19;;;;;;;3.13;2.05;;;28.10;31.30;;;;;;4955854;28;45259;-56
2023/07/06 10:44:48;;;;;;;3.42;1.70;;;28.10;31.50;;;;;;4965976;28;45062;-59
2023/07/06 10:47:35;;;;;;;2.63;1.73;;;28.00;31.20;;;;;;4943482;28;45644;-57
2023/07/06 10:50:23;;;;;;;4.13;2.13;;;28.00;31.40;;;;;;4968976;28;45448;-59
2023/07/06 10:53:17;;;;;;;2.95;1.90;;;28.00;31.50;;;;;;4963272;28;46198;-61
2023/07/06 10:55:43;;;;;;;4.40;1.80;;;28.00;31.20;;;;;;4956713;28;45632;-60
2023/07/06 10:58:28;;;;;;;2.60;1.70;;;27.90;30.80;;;;;;4934461;28;45544;-58
2023/07/06 11:00:55;;;;;;;3.03;1.87;;;27.80;30.80;;;;;;4907625;28;45351;-55
2023/07/06 11:03:28;;;;;;;3.45;1.80;;;27.90;30.70;;;;;;4941621;28;46189;-57
2023/07/06 11:06:06;;;;;;;3.67;1.60;;;27.90;30.80;;;;;;4942283;28;46300;-56
2023/07/06 11:09:07;;;;;;;3.03;1.77;;;27.90;30.80;;;;;;4948871;28;45763;-58
2023/07/06 11:11:35;;;;;;;3.10;1.80;;;28.00;30.30;;;;;;4947060;28;45510;-56
2023/07/06 11:14:20;;;;;;;3.67;1.60;;;28.00;30.40;;;;;;4944836;28;45924;-57
2023/07/06 11:16:55;;;;;;;2.33;1.57;;;28.10;30.40;;;;;;4939214;28;46258;-58
2023/07/06 11:19:25;;;;;;;2.90;1.50;;;28.10;30.10;;;;;;4933667;28;44911;-57
2023/07/06 11:21:53;;;;;;;3.03;1.70;;;28.10;29.90;;;;;;4943979;28;44695;-57
2023/07/06 11:24:21;;;;;;;2.65;1.40;;;28.20;30.00;;;;;;4933066;28;46182;-58
2023/07/06 11:26:50;;;;;;;3.15;1.55;;;28.20;30.00;;;;;;4942178;28;45287;-60
2023/07/06 11:29:19;;;;;;;1.67;1.40;;;28.20;30.00;;;;;;4945829;28;44769;-54
2023/07/06 11:32:04;;;;;;;4.43;1.70;;;28.30;30.00;;;;;;4938025;28;45041;-56
2023/07/06 11:35:07;;;;;;;1.98;1.60;;;28.30;30.00;;;;;;4931362;28;46898;-60
2023/07/06 11:38:00;;;;;;;2.73;1.57;;;28.40;30.00;;;;;;4946803;28;45541;-57
2023/07/06 11:40:57;;;;;;;4.30;1.60;;;28.40;30.00;;;;;;4943237;28;45796;-54
2023/07/06 11:43:44;;;;;;;5.95;1.63;;;28.50;30.00;;;;;;4954257;28;45575;-54
2023/07/06 11:46:23;;;;;;;2.10;1.52;;;28.50;29.80;;;;;;4933511;28;46458;-56
2023/07/06 11:49:01;;;;;;;3.10;1.60;;;28.50;29.80;;;;;;4944693;28;45128;-55
2023/07/06 11:51:27;;;;;;;2.97;1.70;;;28.50;29.70;;;;;;4945082;28;45278;-55
2023/07/06 11:53:54;;;;;;;6.47;1.70;;;28.50;29.80;;;;;;4938105;28;45127;-55
2023/07/06 11:56:35;;;;;;;2.70;1.60;;;28.50;29.70;;;;;;4943130;28;46001;-56
2023/07/06 11:59:04;;;;;;;3.03;1.70;;;28.60;29.70;;;;;;4947192;28;45294;-60
2023/07/06 12:01:40;;;;;;;2.28;1.77;;;28.60;29.70;;;;;;4935833;28;45581;-58
2023/07/06 12:04:13;;;;;;;2.80;1.48;;;28.60;29.70;;;;;;4951631;28;45830;-59
2023/07/06 12:06:39;;;;;;;2.15;1.70;;;28.60;29.70;;;;;;4947427;28;47013;-59
2023/07/06 12:09:07;;;;;;;1.90;1.48;;;28.60;29.30;;;;;;4948984;28;45472;-57
2023/07/06 12:11:33;;;;;;;4.68;1.75;;;28.60;29.50;;;;;;4944904;28;45637;-56
2023/07/06 12:13:59;;;;;;;1.80;1.55;;;28.60;29.40;;;;;;4953376;28;46444;-54
2023/07/06 12:16:27;;;;;;;3.17;1.50;;;28.60;29.30;;;;;;4941111;28;46800;-56
2023/07/06 12:19:05;;;;;;;3.25;1.63;;;28.60;29.30;;;;;;4935117;28;44844;-56
2023/07/06 12:21:40;;;;;;;3.47;1.70;;;28.60;29.20;;;;;;4947696;28;45261;-54
2023/07/06 12:24:12;;;;;;;3.28;1.70;;;28.70;29.20;;;;;;4952861;28;46994;-57
2023/07/06 12:26:48;;;;;;;1.77;1.40;;;28.70;29.10;;;;;;4950793;28;46085;-58
2023/07/06 12:29:15;;;;;;;2.13;1.50;;;28.80;29.00;;;;;;4953586;28;45045;-57
2023/07/06 12:31:42;;;;;;;3.40;1.90;;;28.80;29.00;;;;;;4946283;28;45460;-56
2023/07/06 12:34:08;;;;;;;2.80;1.70;;;28.80;29.00;;;;;;4934715;28;45633;-58
2023/07/06 12:36:35;;;;;;;2.92;1.88;;;28.80;28.90;;;;;;4948462;28;46315;-60
2023/07/06 12:39:02;;;;;;;2.20;1.60;;;28.80;28.80;;;;;;4939086;28;46100;-61
2023/07/06 12:41:32;;;;;;;2.65;1.70;;;28.80;28.80;;;;;;4921450;28;47176;-58
2023/07/06 12:43:59;;;;;;;4.50;1.73;;;28.80;28.90;;;;;;4953890;28;45395;-56
2023/07/06 12:46:24;;;;;;;1.92;1.50;;;28.80;29.00;;;;;;4945041;28;46364;-58
2023/07/06 12:48:52;;;;;;;2.20;1.50;;;28.80;28.90;;;;;;4930726;28;45625;-61
2023/07/06 12:51:21;;;;;;;3.43;1.60;;;28.80;28.60;;;;;;4948560;28;46367;-58
2023/07/06 12:53:47;;;;;;;4.15;1.80;;;28.80;28.60;;;;;;4955952;28;45549;-60
2023/07/06 12:56:20;;;;;;;2.37;1.50;;;28.80;28.70;;;;;;4930694;28;45983;-58
2023/07/06 12:58:54;;;;;;;3.30;1.67;;;28.80;28.60;;;;;;4953266;28;45041;-60
2023/07/06 13:01:21;;;;;;;3.57;1.80;;;28.80;28.60;;;;;;4950322;28;45502;-55
2023/07/06 13:03:58;;;;;;;2.35;1.55;;;28.80;28.60;;;;;;4968316;28;46120;-61
2023/07/06 13:06:25;;;;;;;2.88;1.40;;;28.80;28.60;;;;;;4960595;28;46105;-55
2023/07/06 13:09:00;;;;;;;2.70;1.67;;;28.80;28.50;;;;;;4971071;28;45473;-56
2023/07/06 13:11:26;;;;;;;2.00;1.40;;;28.70;28.40;;;;;;4930827;28;47222;-54
2023/07/06 13:13:56;;;;;;;3.00;1.70;;;28.70;28.20;;;;;;4961021;28;45336;-56
2023/07/06 13:16:22;;;;;;;2.92;1.40;;;28.70;28.10;;;;;;4940489;28;46548;-55
2023/07/06 13:18:47;;;;;;;2.67;1.52;;;28.70;28.10;;;;;;4964457;28;45345;-61
2023/07/06 13:21:19;;;;;;;2.70;1.43;;;28.60;28.10;;;;;;4955208;28;45621;-63
2023/07/06 13:23:46;;;;;;;3.92;1.50;;;28.60;28.20;;;;;;4966852;28;45560;-59
2023/07/06 13:26:11;;;;;;;4.22;1.70;;;28.60;28.40;;;;;;4959097;28;46205;-56
2023/07/06 13:28:38;;;;;;;2.90;1.40;;;28.60;28.40;;;;;;4968843;28;45513;-59
2023/07/06 13:31:04;;;;;;;4.05;1.40;;;28.60;28.60;;;;;;4963051;28;45582;-63
2023/07/06 13:33:29;;;;;;;1.65;1.40;;;28.60;28.30;;;;;;4947813;28;45678;-57
2023/07/06 13:35:55;;;;;;;3.67;1.48;;;28.60;28.40;;;;;;4958709;28;46318;-59
2023/07/06 13:38:21;;;;;;;3.20;1.60;;;28.50;28.50;;;;;;4951815;28;46307;-58
2023/07/06 13:40:48;;;;;;;3.53;1.70;;;28.60;28.60;;;;;;4960746;28;45652;-59
2023/07/06 13:43:15;;;;;;;3.28;1.90;;;28.60;28.40;;;;;;4947991;28;46277;-57
2023/07/06 13:45:42;;;;;;;3.37;1.60;;;28.60;28.40;;;;;;4959741;28;47330;-57
2023/07/06 13:48:08;;;;;;;3.00;1.87;;;28.60;28.30;;;;;;4964162;28;45506;-58
2023/07/06 13:50:34;;;;;;;2.42;1.55;;;28.70;28.40;;;;;;4961803;28;45663;-59
2023/07/06 13:53:00;;;;;;;3.60;1.67;;;28.70;28.50;;;;;;4965131;28;46403;-56
2023/07/06 13:55:37;;;;;;;2.75;1.88;;;28.70;28.10;;;;;;4960815;28;47098;-57
2023/07/06 13:58:04;;;;;;;2.43;1.70;;;28.70;28.00;;;;;;4927292;28;46079;-56
2023/07/06 14:00:31;;;;;;;1.93;1.60;;;28.70;27.70;;;;;;4956540;28;46268;-54
2023/07/06 14:02:57;;;;;;;3.88;1.60;;;28.70;27.60;;;;;;4963867;28;45296;-58
2023/07/06 14:05:22;;;;;;;3.10;1.73;;;28.70;27.70;;;;;;4961104;28;46445;-57
2023/07/06 14:07:48;;;;;;;2.90;1.43;;;28.60;27.80;;;;;;4966376;28;45789;-56
2023/07/06 14:10:17;;;;;;;2.90;1.48;;;28.70;27.90;;;;;;4959228;28;45005;-56
2023/07/06 14:12:47;;;;;;;2.53;1.70;;;28.70;28.00;;;;;;4966132;28;46133;-57
2023/07/06 14:15:14;;;;;;;4.07;1.60;;;28.70;28.00;;;;;;4960400;28;45339;-63
2023/07/06 14:17:44;;;;;;;1.60;1.50;;;28.70;28.10;;;;;;4964097;28;45343;-60
2023/07/06 14:20:10;;;;;;;4.18;1.60;;;28.70;28.10;;;;;;4960496;28;45330;-56
2023/07/06 14:22:36;;;;;;;3.60;1.98;;;28.70;28.10;;;;;;4963473;28;45751;-59
2023/07/06 14:25:04;;;;;;;2.17;1.60;;;28.70;28.20;;;;;;4931230;28;48085;-57
2023/07/06 14:27:30;;;;;;;2.10;1.73;;;28.70;28.30;;;;;;4914326;28;45410;-60
2023/07/06 14:29:55;;;;;;;3.40;1.77;;;28.70;28.40;;;;;;4960204;28;45941;-59
2023/07/06 14:32:22;;;;;;;3.50;1.40;;;28.70;28.40;;;;;;4952798;28;45070;-55
2023/07/06 14:34:47;;;;;;;2.65;1.55;;;28.70;28.40;;;;;;4963276;28;46189;-62
2023/07/06 14:37:14;;;;;;;2.97;1.55;;;28.70;28.40;;;;;;4960840;28;45275;-62
2023/07/06 14:39:39;;;;;;;3.97;1.60;;;28.70;28.40;;;;;;4966191;28;45128;-60
2023/07/06 14:42:07;;;;;;;1.60;1.50;;;28.70;28.30;;;;;;4960592;28;46237;-59
2023/07/06 14:44:34;;;;;;;3.25;1.48;;;28.70;28.40;;;;;;4965906;28;46953;-60
2023/07/06 14:47:00;;;;;;;2.03;1.43;;;28.80;28.40;;;;;;4956850;28;45368;-59
2023/07/06 14:49:26;;;;;;;2.58;1.55;;;28.90;28.40;;;;;;4948171;28;45808;-58
2023/07/06 14:51:52;;;;;;;2.93;1.57;;;28.90;28.40;;;;;;4942484;28;46181;-60
2023/07/06 14:54:18;;;;;;;1.90;1.50;;;29.00;28.40;;;;;;4965043;28;45722;-58
2023/07/06 14:56:44;;;;;;;2.85;1.70;;;29.00;28.20;;;;;;4960924;28;45617;-56
2023/07/06 14:59:10;;;;;;;2.88;1.80;;;29.10;27.90;;;;;;4959216;28;45644;-57
2023/07/06 15:01:35;;;;;;;3.05;1.95;;;29.20;27.50;;;;;;4950726;28;45701;-57
2023/07/06 15:04:01;;;;;;;2.17;1.63;;;29.20;27.50;;;;;;4964796;28;45616;-57
2023/07/06 15:06:26;;;;;;;2.90;1.80;;;29.20;27.50;;;;;;4958808;28;45750;-57
2023/07/06 15:08:53;;;;;;;2.60;1.80;;;29.20;27.40;;;;;;4962765;28;45502;-59
2023/07/06 15:11:18;;;;;;;4.45;1.80;;;29.20;27.30;;;;;;4958921;28;45269;-55
2023/07/06 15:13:44;;;;;;;2.15;1.58;;;29.10;27.20;;;;;;4950206;28;45316;-54
2023/07/06 15:16:09;;;;;;;2.97;1.90;;;29.20;27.10;;;;;;4953087;28;45243;-58
2023/07/06 15:18:35;;;;;;;2.73;1.90;;;29.10;27.00;;;;;;4961776;28;45724;-57
2023/07/06 15:21:15;;;;;;;2.93;1.80;;;29.20;26.90;;;;;;4958602;28;45263;-56
2023/07/06 15:23:41;;;;;;;2.47;1.63;;;29.10;26.80;;;;;;4942020;28;46079;-58
2023/07/06 15:26:07;;;;;;;3.63;1.80;;;29.10;26.80;;;;;;4956659;28;46288;-56
2023/07/06 15:28:32;;;;;;;2.78;1.73;;;29.10;26.80;;;;;;4964936;28;45649;-56
2023/07/06 15:30:58;;;;;;;3.67;1.80;;;29.10;26.80;;;;;;4955095;28;45684;-55
2023/07/06 15:33:24;;;;;;;4.57;1.90;;;29.20;26.80;;;;;;4963232;28;46807;-53
2023/07/06 15:35:49;;;;;;;4.87;1.97;;;29.20;26.80;;;;;;4957683;28;44772;-53
2023/07/06 15:38:15;;;;;;;2.75;1.80;;;29.10;26.70;;;;;;4964143;28;44698;-56
2023/07/06 15:40:43;;;;;;;3.92;1.83;;;29.10;26.80;;;;;;4955733;28;44820;-59
2023/07/06 15:43:08;;;;;;;4.50;1.80;;;29.10;26.70;;;;;;4942936;28;46185;-57
2023/07/06 15:45:34;;;;;;;3.72;1.70;;;29.10;26.80;;;;;;4955296;28;45727;-56
2023/07/06 15:47:59;;;;;;;2.83;1.80;;;29.10;26.70;;;;;;4940166;28;45465;-58
2023/07/06 15:50:25;;;;;;;2.90;1.83;;;29.20;26.70;;;;;;4936377;28;46166;-57
2023/07/06 15:52:51;;;;;;;3.72;2.08;;;29.20;26.60;;;;;;4961937;28;46019;-58
2023/07/06 15:55:16;;;;;;;2.13;1.63;;;29.20;26.60;;;;;;4958546;28;45050;-56